Time;durP1;ratioP1;P1;durP2;ratioP2;P2;SDS_P1;SDS_P2;PMS_P1;PMS_P2;Temp;Humidity;BMP_temperature;BMP_pressure;BME280_temperature;BME280_humidity;BME280_pressure;Samples;Min_cycle;Max_cycle;Signal;HPM_P1;HPM_P2
2023/06/18 00:02:04;;;;;;;16.08;10.60;;;14.20;99.90;;;;;;5090289;28;20035;-72
2023/06/18 00:04:31;;;;;;;18.83;10.95;;;14.20;99.90;;;;;;5089362;28;20111;-73
2023/06/18 00:06:57;;;;;;;19.08;11.52;;;14.10;99.90;;;;;;5089999;27;20042;-72
2023/06/18 00:09:23;;;;;;;18.88;10.77;;;14.00;99.90;;;;;;5089291;28;20032;-72
2023/06/18 00:11:49;;;;;;;18.05;10.98;;;13.90;99.90;;;;;;5088752;28;20743;-73
2023/06/18 00:14:15;;;;;;;20.52;10.90;;;14.00;99.90;;;;;;5088700;28;20388;-72
2023/06/18 00:16:41;;;;;;;20.65;11.25;;;13.90;99.90;;;;;;5089788;28;20111;-72
2023/06/18 00:19:06;;;;;;;17.95;10.82;;;14.00;99.90;;;;;;5089894;28;20107;-72
2023/06/18 00:21:32;;;;;;;18.65;10.40;;;13.80;99.90;;;;;;5089096;28;20122;-72
2023/06/18 00:23:58;;;;;;;20.73;11.15;;;13.70;99.90;;;;;;5089785;28;20067;-72
2023/06/18 00:26:25;;;;;;;17.60;11.23;;;13.50;99.90;;;;;;5087560;28;20500;-72
2023/06/18 00:28:51;;;;;;;22.08;11.40;;;13.50;99.90;;;;;;5089510;28;20066;-72
2023/06/18 00:31:17;;;;;;;19.85;11.30;;;13.50;99.90;;;;;;5088565;28;20397;-72
2023/06/18 00:33:44;;;;;;;18.63;11.32;;;13.50;99.90;;;;;;5089661;28;20034;-72
2023/06/18 00:36:10;;;;;;;21.30;11.48;;;13.50;99.90;;;;;;5089473;28;20038;-72
2023/06/18 00:38:36;;;;;;;17.17;11.00;;;13.40;99.90;;;;;;5088994;28;20040;-72
2023/06/18 00:41:02;;;;;;;21.35;11.23;;;13.40;99.90;;;;;;5089548;28;20387;-72
2023/06/18 00:43:28;;;;;;;20.80;11.48;;;13.30;99.90;;;;;;5088592;28;20099;-72
2023/06/18 00:46:01;;;;;;;17.90;10.93;;;13.30;99.90;;;;;;5088996;28;20039;-72
2023/06/18 00:48:28;;;;;;;18.38;10.65;;;13.20;99.90;;;;;;5088547;28;20035;-72
2023/06/18 00:50:54;;;;;;;18.10;11.05;;;13.20;99.90;;;;;;5089258;28;20028;-73
2023/06/18 00:53:20;;;;;;;17.90;10.77;;;13.20;99.90;;;;;;5088479;28;20145;-72
2023/06/18 00:55:50;;;;;;;17.00;10.63;;;13.20;99.90;;;;;;5089089;28;20122;-72
2023/06/18 00:58:16;;;;;;;19.40;11.32;;;13.10;99.90;;;;;;5088439;28;20036;-72
2023/06/18 01:00:43;;;;;;;18.38;10.95;;;13.10;99.90;;;;;;5088956;28;20024;-72
2023/06/18 01:03:20;;;;;;;20.08;11.32;;;13.20;99.90;;;;;;5089176;28;20085;-72
2023/06/18 01:05:49;;;;;;;20.00;11.35;;;13.20;99.90;;;;;;5089151;28;20020;-72
2023/06/18 01:08:17;;;;;;;19.27;11.45;;;13.30;99.90;;;;;;5088667;28;20059;-72
2023/06/18 01:10:44;;;;;;;18.27;11.05;;;13.20;99.90;;;;;;5088894;28;20028;-72
2023/06/18 01:13:14;;;;;;;17.00;10.98;;;13.30;99.90;;;;;;5089020;28;20036;-72
2023/06/18 01:15:40;;;;;;;21.17;11.48;;;13.40;99.90;;;;;;5087986;28;20032;-72
2023/06/18 01:18:07;;;;;;;19.27;11.45;;;13.40;99.90;;;;;;5088964;28;20036;-72
2023/06/18 01:20:40;;;;;;;19.80;11.05;;;13.40;99.90;;;;;;5087876;28;20040;-72
2023/06/18 01:23:21;;;;;;;19.35;11.85;;;13.40;99.90;;;;;;5088625;28;20024;-72
2023/06/18 01:25:46;;;;;;;20.08;11.57;;;13.40;99.90;;;;;;5088740;28;20024;-72
2023/06/18 01:28:15;;;;;;;18.50;11.15;;;13.30;99.90;;;;;;5088558;28;20541;-72
2023/06/18 01:30:41;;;;;;;18.63;11.68;;;13.30;99.90;;;;;;5088171;28;20077;-73
2023/06/18 01:33:12;;;;;;;21.30;12.18;;;13.10;99.90;;;;;;5088702;28;20091;-72
2023/06/18 01:35:38;;;;;;;20.10;11.70;;;13.10;99.90;;;;;;5088066;28;20036;-72
2023/06/18 01:38:24;;;;;;;20.13;11.45;;;13.20;99.90;;;;;;5088727;28;20119;-72
2023/06/18 01:41:13;;;;;;;23.38;11.98;;;13.10;99.90;;;;;;5088703;28;20028;-72
2023/06/18 01:43:45;;;;;;;18.25;11.55;;;13.00;99.90;;;;;;5087884;28;20059;-72
2023/06/18 01:46:20;;;;;;;20.33;12.40;;;12.80;99.90;;;;;;5088122;28;20408;-72
2023/06/18 01:48:53;;;;;;;22.60;11.77;;;12.70;99.90;;;;;;5088558;28;20028;-72
2023/06/18 01:51:20;;;;;;;18.38;10.93;;;12.60;99.90;;;;;;5087651;28;20032;-72
2023/06/18 01:53:48;;;;;;;18.60;11.30;;;12.50;99.90;;;;;;5088663;28;20040;-72
2023/06/18 01:56:14;;;;;;;18.23;11.35;;;12.50;99.90;;;;;;5088354;28;20036;-72
2023/06/18 01:58:44;;;;;;;19.40;11.18;;;12.50;99.90;;;;;;5087862;28;20039;-72
2023/06/18 02:01:11;;;;;;;17.58;11.10;;;12.60;99.90;;;;;;5088414;28;20028;-72
2023/06/18 02:03:40;;;;;;;20.63;11.50;;;12.50;99.90;;;;;;5086148;28;20242;-72
2023/06/18 02:06:07;;;;;;;19.15;11.45;;;12.60;99.90;;;;;;5088381;28;20032;-72
2023/06/18 02:08:33;;;;;;;23.27;12.52;;;12.60;99.90;;;;;;5087558;28;20032;-72
2023/06/18 02:10:59;;;;;;;19.75;11.50;;;12.60;99.90;;;;;;5088390;28;20038;-72
2023/06/18 02:13:25;;;;;;;18.95;12.10;;;12.40;99.90;;;;;;5087299;28;20506;-72
2023/06/18 02:15:51;;;;;;;18.50;11.07;;;12.30;99.90;;;;;;5087700;28;20036;-72
2023/06/18 02:18:17;;;;;;;19.08;11.57;;;12.30;99.90;;;;;;5086674;28;20037;-72
2023/06/18 02:20:43;;;;;;;22.13;11.98;;;12.20;99.90;;;;;;5087586;28;20036;-72
2023/06/18 02:23:09;;;;;;;20.63;12.15;;;12.10;99.90;;;;;;5087861;28;20185;-72
2023/06/18 02:25:35;;;;;;;18.83;12.07;;;12.10;99.90;;;;;;5087292;28;20080;-72
2023/06/18 02:28:05;;;;;;;19.98;11.80;;;12.20;99.90;;;;;;5087983;28;20028;-72
2023/06/18 02:30:31;;;;;;;20.25;11.90;;;12.30;99.90;;;;;;5087301;28;20060;-72
2023/06/18 02:32:58;;;;;;;20.13;11.90;;;12.30;99.90;;;;;;5087976;28;20085;-72
2023/06/18 02:35:25;;;;;;;20.92;12.30;;;12.30;99.90;;;;;;5088934;28;20153;-72
2023/06/18 02:37:52;;;;;;;21.17;12.05;;;12.30;99.90;;;;;;5091748;28;20044;-72
2023/06/18 02:40:18;;;;;;;21.80;12.07;;;12.20;99.90;;;;;;5091485;28;20027;-72
2023/06/18 02:42:50;;;;;;;20.52;12.35;;;12.10;99.90;;;;;;5091534;28;20385;-72
2023/06/18 02:45:25;;;;;;;22.33;12.43;;;12.00;99.90;;;;;;5091670;28;20111;-72
2023/06/18 02:47:51;;;;;;;23.52;12.43;;;11.90;99.90;;;;;;5091737;28;20048;-72
2023/06/18 02:50:18;;;;;;;21.75;12.35;;;12.00;99.90;;;;;;5091653;28;20070;-72
2023/06/18 02:52:44;;;;;;;21.58;12.52;;;12.10;99.90;;;;;;5089556;28;20059;-72
2023/06/18 02:55:11;;;;;;;20.08;11.60;;;12.10;99.90;;;;;;5091444;28;20028;-72
2023/06/18 02:57:39;;;;;;;21.00;12.52;;;12.20;99.90;;;;;;5090523;28;20085;-72
2023/06/18 03:00:09;;;;;;;22.38;12.13;;;12.10;99.90;;;;;;5091329;28;20039;-72
2023/06/18 03:02:35;;;;;;;21.10;12.75;;;11.90;99.90;;;;;;5090544;28;20071;-72
2023/06/18 03:05:01;;;;;;;20.88;12.55;;;11.80;99.90;;;;;;5091086;28;20366;-72
2023/06/18 03:07:27;;;;;;;19.60;12.10;;;11.70;99.90;;;;;;5090775;28;20032;-72
2023/06/18 03:09:53;;;;;;;22.75;11.93;;;11.60;99.90;;;;;;5091295;28;20401;-72
2023/06/18 03:12:19;;;;;;;21.05;12.68;;;11.50;99.90;;;;;;5089837;28;20666;-71
2023/06/18 03:14:45;;;;;;;24.50;12.70;;;11.50;99.90;;;;;;5088906;28;20035;-72
2023/06/18 03:17:10;;;;;;;22.90;12.32;;;11.50;99.90;;;;;;5091099;28;20053;-72
2023/06/18 03:19:36;;;;;;;27.95;12.43;;;11.50;99.90;;;;;;5090225;28;20151;-72
2023/06/18 03:22:03;;;;;;;21.38;12.90;;;11.40;99.90;;;;;;5089647;28;20028;-72
2023/06/18 03:24:29;;;;;;;23.52;12.65;;;11.40;99.90;;;;;;5089845;28;20107;-72
2023/06/18 03:26:58;;;;;;;22.98;12.75;;;11.30;99.90;;;;;;5091220;28;20480;-72
2023/06/18 03:29:25;;;;;;;20.25;12.38;;;11.30;99.90;;;;;;5090089;28;20032;-72
2023/06/18 03:31:52;;;;;;;24.67;13.18;;;11.30;99.90;;;;;;5090565;28;20464;-72
2023/06/18 03:34:20;;;;;;;22.75;13.27;;;11.20;99.90;;;;;;5090806;28;20058;-72
2023/06/18 03:36:47;;;;;;;19.88;11.63;;;11.20;99.90;;;;;;5089976;28;20483;-72
2023/06/18 03:39:15;;;;;;;23.35;12.27;;;11.20;99.90;;;;;;5090664;28;20032;-72
2023/06/18 03:41:41;;;;;;;20.25;12.07;;;11.20;99.90;;;;;;5089758;28;20036;-72
2023/06/18 03:44:07;;;;;;;24.77;13.13;;;11.30;99.90;;;;;;5090595;28;20029;-72
2023/06/18 03:46:33;;;;;;;21.23;12.18;;;11.30;99.90;;;;;;5089373;28;20052;-72
2023/06/18 03:48:58;;;;;;;21.67;12.88;;;11.30;99.90;;;;;;5090570;28;20081;-72
2023/06/18 03:51:26;;;;;;;22.35;13.02;;;11.40;99.90;;;;;;5090133;28;20028;-72
2023/06/18 03:53:52;;;;;;;21.63;12.88;;;11.40;99.90;;;;;;5090281;28;20502;-73
2023/06/18 03:56:19;;;;;;;21.05;12.60;;;11.40;99.90;;;;;;5089883;28;20488;-72
2023/06/18 03:58:44;;;;;;;21.83;12.88;;;11.30;99.90;;;;;;5089531;28;20107;-72
2023/06/18 04:01:10;;;;;;;23.08;12.93;;;11.40;99.90;;;;;;5090024;28;20477;-72
2023/06/18 04:03:37;;;;;;;23.13;12.52;;;11.60;99.90;;;;;;5089462;28;20023;-72
2023/06/18 04:06:03;;;;;;;22.42;12.98;;;11.70;99.90;;;;;;5090122;28;20047;-72
2023/06/18 04:08:28;;;;;;;25.77;13.77;;;11.70;99.90;;;;;;5089456;28;20470;-72
2023/06/18 04:10:55;;;;;;;22.02;13.18;;;11.70;99.90;;;;;;5090149;28;20030;-72
2023/06/18 04:13:21;;;;;;;21.83;13.25;;;11.70;99.90;;;;;;5088785;28;20034;-72
2023/06/18 04:15:47;;;;;;;21.30;12.68;;;11.70;99.90;;;;;;5088823;28;20032;-72
2023/06/18 04:18:13;;;;;;;24.10;13.38;;;11.90;99.90;;;;;;5089753;28;20044;-72
2023/06/18 04:20:38;;;;;;;21.92;12.80;;;11.90;99.90;;;;;;5089117;28;20031;-72
2023/06/18 04:23:04;;;;;;;22.00;12.80;;;12.00;99.90;;;;;;5090140;28;20032;-72
2023/06/18 04:25:30;;;;;;;23.85;13.15;;;12.10;99.90;;;;;;5089040;28;20043;-72
2023/06/18 04:27:56;;;;;;;22.85;12.98;;;12.10;99.90;;;;;;5089644;28;20031;-72
2023/06/18 04:30:21;;;;;;;21.23;12.68;;;12.20;99.90;;;;;;5089471;28;20028;-72
2023/06/18 04:32:47;;;;;;;20.92;12.13;;;12.30;99.90;;;;;;5088779;28;20870;-72
2023/06/18 04:35:13;;;;;;;22.38;13.70;;;12.30;99.90;;;;;;5089636;28;20402;-72
2023/06/18 04:37:38;;;;;;;21.08;13.25;;;12.40;99.90;;;;;;5088752;28;20051;-72
2023/06/18 04:40:08;;;;;;;22.77;12.68;;;12.50;99.90;;;;;;5089306;28;20036;-72
2023/06/18 04:42:33;;;;;;;20.92;12.23;;;12.50;99.90;;;;;;5088506;28;20023;-72
2023/06/18 04:44:59;;;;;;;23.20;13.80;;;12.50;99.90;;;;;;5088882;28;20500;-72
2023/06/18 04:47:25;;;;;;;20.08;12.82;;;12.50;99.90;;;;;;5089253;28;20056;-72
2023/06/18 04:49:50;;;;;;;20.98;13.10;;;12.60;99.90;;;;;;5088624;28;20400;-72
2023/06/18 04:52:16;;;;;;;21.92;13.43;;;12.70;99.90;;;;;;5089250;28;20369;-72
2023/06/18 04:54:42;;;;;;;22.25;13.18;;;12.70;99.90;;;;;;5088407;28;20464;-72
2023/06/18 04:57:10;;;;;;;19.73;12.43;;;12.90;99.90;;;;;;5088831;28;20024;-72
2023/06/18 04:59:39;;;;;;;22.05;13.40;;;13.00;99.90;;;;;;5088143;28;20032;-71
2023/06/18 05:02:06;;;;;;;20.67;12.88;;;13.20;99.90;;;;;;5088873;28;20051;-72
2023/06/18 05:04:32;;;;;;;22.48;13.50;;;13.30;99.90;;;;;;5088259;28;20039;-71
2023/06/18 05:06:58;;;;;;;19.33;12.55;;;13.50;99.90;;;;;;5089043;28;20032;-72
2023/06/18 05:09:26;;;;;;;22.98;13.23;;;13.60;99.90;;;;;;5088933;28;20028;-72
2023/06/18 05:11:52;;;;;;;21.17;13.18;;;13.80;99.90;;;;;;5088889;28;20035;-72
2023/06/18 05:14:18;;;;;;;21.58;12.73;;;14.00;99.90;;;;;;5088652;28;20035;-72
2023/06/18 05:16:43;;;;;;;19.73;12.57;;;14.00;99.90;;;;;;5087741;28;20461;-73
2023/06/18 05:19:09;;;;;;;18.70;12.68;;;14.10;99.90;;;;;;5088882;28;20122;-72
2023/06/18 05:21:35;;;;;;;18.80;12.38;;;14.20;99.90;;;;;;5088160;28;20425;-72
2023/06/18 05:24:00;;;;;;;20.65;12.82;;;14.30;99.90;;;;;;5088810;28;20028;-72
2023/06/18 05:26:26;;;;;;;23.10;13.25;;;14.40;99.90;;;;;;5088635;28;20028;-72
2023/06/18 05:28:52;;;;;;;25.90;13.80;;;14.50;99.90;;;;;;5087914;28;20031;-72
2023/06/18 05:31:18;;;;;;;25.08;12.95;;;14.60;99.90;;;;;;5088413;28;20463;-72
2023/06/18 05:33:43;;;;;;;20.67;13.63;;;14.70;99.90;;;;;;5087865;28;20032;-72
2023/06/18 05:36:09;;;;;;;20.73;13.93;;;14.70;99.90;;;;;;5088459;28;20035;-72
2023/06/18 05:38:35;;;;;;;20.25;12.80;;;14.60;99.90;;;;;;5087871;28;20036;-72
2023/06/18 05:41:00;;;;;;;22.15;13.38;;;14.70;99.90;;;;;;5088510;28;20057;-72
2023/06/18 05:43:26;;;;;;;22.73;13.88;;;14.90;99.90;;;;;;5088496;28;20103;-72
2023/06/18 05:45:52;;;;;;;21.92;13.23;;;15.00;99.90;;;;;;5087166;28;20256;-72
2023/06/18 05:48:17;;;;;;;20.63;13.35;;;15.10;99.90;;;;;;5088536;28;20035;-72
2023/06/18 05:50:43;;;;;;;21.50;13.52;;;15.20;99.90;;;;;;5087673;28;20028;-72
2023/06/18 05:53:08;;;;;;;23.13;13.38;;;15.40;99.90;;;;;;5088672;28;20762;-72
2023/06/18 05:55:34;;;;;;;24.55;12.98;;;15.50;99.90;;;;;;5087343;28;20032;-72
2023/06/18 05:58:01;;;;;;;20.58;13.10;;;15.60;99.90;;;;;;5088310;28;20126;-72
2023/06/18 06:00:27;;;;;;;21.50;13.48;;;15.70;99.90;;;;;;5088142;28;20024;-72
2023/06/18 06:02:52;;;;;;;22.20;13.98;;;15.80;99.90;;;;;;5087403;28;20035;-72
2023/06/18 06:05:18;;;;;;;19.70;13.32;;;16.00;99.90;;;;;;5088018;28;20036;-72
2023/06/18 06:07:44;;;;;;;19.67;12.65;;;16.30;99.90;;;;;;5087507;28;20089;-72
2023/06/18 06:10:12;;;;;;;23.63;13.23;;;16.50;99.90;;;;;;5089794;28;20078;-72
2023/06/18 06:12:38;;;;;;;17.27;11.57;;;16.70;99.90;;;;;;5091596;28;20518;-72
2023/06/18 06:15:04;;;;;;;20.67;12.63;;;16.90;99.90;;;;;;5092080;28;20036;-72
2023/06/18 06:17:30;;;;;;;20.58;13.18;;;17.10;99.90;;;;;;5091886;28;20115;-71
2023/06/18 06:19:56;;;;;;;18.80;12.90;;;17.20;99.90;;;;;;5091757;28;20481;-71
2023/06/18 06:22:21;;;;;;;23.33;12.52;;;17.40;99.90;;;;;;5092142;28;20028;-72
2023/06/18 06:24:47;;;;;;;18.75;12.50;;;17.60;99.90;;;;;;5091198;28;20028;-72
2023/06/18 06:27:13;;;;;;;17.33;11.80;;;17.90;99.90;;;;;;5092041;28;20044;-72
2023/06/18 06:29:38;;;;;;;19.20;13.25;;;18.20;99.90;;;;;;5091308;28;20036;-71
2023/06/18 06:32:05;;;;;;;18.73;12.68;;;18.30;99.90;;;;;;5091870;28;20028;-71
2023/06/18 06:34:31;;;;;;;19.40;12.38;;;18.50;99.90;;;;;;5091762;28;20028;-71
2023/06/18 06:36:57;;;;;;;19.05;12.40;;;18.60;99.90;;;;;;5091041;28;20357;-71
2023/06/18 06:39:22;;;;;;;18.52;12.07;;;18.60;99.90;;;;;;5091706;28;20082;-72
2023/06/18 06:41:48;;;;;;;21.63;12.32;;;18.60;99.90;;;;;;5091342;28;20375;-72
2023/06/18 06:44:14;;;;;;;20.50;12.35;;;18.70;99.90;;;;;;5091754;28;20055;-72
2023/06/18 06:46:40;;;;;;;20.13;12.52;;;18.90;99.90;;;;;;5090708;28;20520;-71
2023/06/18 06:49:07;;;;;;;20.15;12.95;;;19.10;99.90;;;;;;5091609;28;20064;-71
2023/06/18 06:51:35;;;;;;;17.92;12.23;;;19.10;99.90;;;;;;5091327;28;20063;-71
2023/06/18 06:54:00;;;;;;;22.20;12.05;;;19.20;99.90;;;;;;5091267;28;20030;-71
2023/06/18 06:56:26;;;;;;;21.33;11.90;;;19.40;99.90;;;;;;5091644;28;20032;-72
2023/06/18 06:58:52;;;;;;;18.23;11.88;;;19.60;99.90;;;;;;5090729;28;20024;-72
2023/06/18 07:01:19;;;;;;;21.33;12.05;;;19.90;99.90;;;;;;5091355;28;20024;-72
2023/06/18 07:03:45;;;;;;;21.83;12.10;;;20.20;99.90;;;;;;5090717;28;20032;-72
2023/06/18 07:06:11;;;;;;;17.20;11.95;;;20.60;99.90;;;;;;5091290;28;20362;-71
2023/06/18 07:08:37;;;;;;;16.90;11.77;;;20.90;99.90;;;;;;5090541;28;20103;-71
2023/06/18 07:11:03;;;;;;;18.33;11.68;;;21.10;99.90;;;;;;5091346;28;20740;-71
2023/06/18 07:13:28;;;;;;;17.55;11.73;;;21.40;99.90;;;;;;5091213;28;20024;-72
2023/06/18 07:15:54;;;;;;;17.17;12.20;;;21.60;99.90;;;;;;5089869;28;20056;-70
2023/06/18 07:18:20;;;;;;;14.40;11.07;;;21.80;99.90;;;;;;5091127;28;20036;-70
2023/06/18 07:20:46;;;;;;;22.50;11.75;;;21.90;99.90;;;;;;5089612;28;20032;-70
2023/06/18 07:23:12;;;;;;;19.05;11.82;;;22.10;99.90;;;;;;5090800;28;20034;-70
2023/06/18 07:25:37;;;;;;;15.82;11.52;;;22.30;99.90;;;;;;5090073;28;20102;-70
2023/06/18 07:28:03;;;;;;;18.45;12.15;;;22.50;99.90;;;;;;5090955;28;20055;-70
2023/06/18 07:30:29;;;;;;;14.77;11.32;;;22.70;99.90;;;;;;5090690;28;20032;-70
2023/06/18 07:32:54;;;;;;;14.25;10.30;;;22.90;99.90;;;;;;5089887;28;20051;-69
2023/06/18 07:35:20;;;;;;;16.35;9.35;;;23.20;99.90;;;;;;5091139;28;20388;-70
2023/06/18 07:37:47;;;;;;;14.45;9.38;;;23.60;94.70;;;;;;5090034;28;20068;-70
2023/06/18 07:40:13;;;;;;;12.02;8.70;;;23.80;96.20;;;;;;5090552;28;20040;-70
2023/06/18 07:42:38;;;;;;;13.27;9.57;;;24.00;92.20;;;;;;5089992;28;20039;-70
2023/06/18 07:45:04;;;;;;;11.88;8.18;;;24.30;92.80;;;;;;5090483;28;20039;-70
2023/06/18 07:47:30;;;;;;;16.27;8.75;;;24.50;84.30;;;;;;5090049;28;20074;-69
2023/06/18 07:49:56;;;;;;;12.70;8.60;;;24.80;78.70;;;;;;5089821;28;20020;-70
2023/06/18 07:52:22;;;;;;;13.02;8.55;;;24.80;75.80;;;;;;5090434;28;20457;-70
2023/06/18 07:54:47;;;;;;;12.98;8.02;;;25.00;72.70;;;;;;5089568;28;20032;-69
2023/06/18 07:57:13;;;;;;;11.40;8.65;;;25.20;66.00;;;;;;5090164;28;20032;-70
2023/06/18 07:59:39;;;;;;;15.25;9.05;;;25.40;69.20;;;;;;5089672;28;20028;-70
2023/06/18 08:02:05;;;;;;;12.65;8.43;;;25.50;62.90;;;;;;5090072;28;20032;-70
2023/06/18 08:04:31;;;;;;;11.88;8.48;;;25.60;63.90;;;;;;5090144;28;20027;-70
2023/06/18 08:06:56;;;;;;;11.70;8.57;;;25.60;61.90;;;;;;5089477;28;20019;-70
2023/06/18 08:09:22;;;;;;;12.10;8.18;;;25.80;59.50;;;;;;5089969;28;20043;-70
2023/06/18 08:11:48;;;;;;;12.68;8.00;;;25.90;58.20;;;;;;5089262;28;20028;-70
2023/06/18 08:14:14;;;;;;;11.50;8.38;;;26.20;58.00;;;;;;5089985;28;20024;-70
2023/06/18 08:16:39;;;;;;;12.90;8.15;;;26.30;56.40;;;;;;5087352;28;20043;-70
2023/06/18 08:19:05;;;;;;;11.10;7.78;;;26.40;55.80;;;;;;5090012;28;20043;-70
2023/06/18 08:21:31;;;;;;;12.68;8.52;;;26.40;53.70;;;;;;5089779;28;20020;-69
2023/06/18 08:23:57;;;;;;;10.30;7.80;;;26.50;52.80;;;;;;5089002;28;20111;-69
2023/06/18 08:26:22;;;;;;;10.40;8.15;;;26.50;54.00;;;;;;5090097;28;20483;-69
2023/06/18 08:28:49;;;;;;;18.60;7.82;;;26.60;54.00;;;;;;5088986;28;20029;-69
2023/06/18 08:31:15;;;;;;;13.13;7.97;;;26.60;53.90;;;;;;5089665;28;20031;-69
2023/06/18 08:33:41;;;;;;;24.73;8.77;;;26.60;53.30;;;;;;5088387;28;20024;-69
2023/06/18 08:36:06;;;;;;;15.30;8.50;;;26.60;54.60;;;;;;5089782;28;20108;-70
2023/06/18 08:38:32;;;;;;;12.90;8.20;;;26.70;51.80;;;;;;5089725;28;20527;-69
2023/06/18 08:41:02;;;;;;;12.10;7.97;;;26.90;52.70;;;;;;5088949;28;20117;-69
2023/06/18 08:43:32;;;;;;;10.13;8.23;;;27.00;52.50;;;;;;5089457;28;20028;-69
2023/06/18 08:46:20;;;;;;;10.43;7.72;;;26.90;48.70;;;;;;5088042;28;20054;-69
2023/06/18 08:49:14;;;;;;;12.10;8.43;;;26.80;53.20;;;;;;5088713;28;20055;-70
2023/06/18 08:51:41;;;;;;;16.00;9.05;;;27.00;49.40;;;;;;5086870;28;20040;-71
2023/06/18 08:54:13;;;;;;;10.05;7.75;;;27.00;49.40;;;;;;5089024;28;20451;-71
2023/06/18 08:56:43;;;;;;;11.95;8.07;;;27.10;51.20;;;;;;5088679;28;20591;-70
2023/06/18 08:59:11;;;;;;;11.75;7.97;;;27.30;49.90;;;;;;5089138;28;20123;-70
2023/06/18 09:01:38;;;;;;;15.20;8.18;;;27.50;48.90;;;;;;5088690;28;20032;-69
2023/06/18 09:04:07;;;;;;;14.60;8.40;;;27.70;49.70;;;;;;5086879;28;20092;-70
2023/06/18 09:06:33;;;;;;;19.57;8.13;;;27.70;49.20;;;;;;5088810;28;20067;-70
2023/06/18 09:09:00;;;;;;;13.55;8.30;;;27.70;50.50;;;;;;5088252;28;20130;-69
2023/06/18 09:11:26;;;;;;;14.25;7.63;;;27.90;49.20;;;;;;5121491;27;20111;-69
2023/06/18 09:13:52;;;;;;;12.23;8.27;;;27.90;48.30;;;;;;5088105;28;20020;-71
2023/06/18 09:16:18;;;;;;;11.93;7.97;;;27.90;48.20;;;;;;5088290;28;20051;-72
2023/06/18 09:18:44;;;;;;;10.52;8.00;;;28.00;47.30;;;;;;5088042;28;20453;-71
2023/06/18 09:21:10;;;;;;;13.30;8.25;;;28.10;48.10;;;;;;5088798;28;20016;-71
2023/06/18 09:23:36;;;;;;;10.07;8.02;;;28.20;47.20;;;;;;5088368;28;20035;-71
2023/06/18 09:26:02;;;;;;;11.13;8.27;;;28.30;48.00;;;;;;5087825;28;20179;-71
2023/06/18 09:28:28;;;;;;;12.40;7.75;;;28.30;47.00;;;;;;5088636;28;20036;-71
2023/06/18 09:31:00;;;;;;;12.93;7.97;;;28.50;47.60;;;;;;5087658;28;20047;-70
2023/06/18 09:33:27;;;;;;;13.45;8.77;;;28.50;47.60;;;;;;5088625;28;20032;-71
2023/06/18 09:36:05;;;;;;;14.70;7.95;;;28.60;47.80;;;;;;5120511;27;20032;-71
2023/06/18 09:38:34;;;;;;;9.95;8.23;;;28.90;48.70;;;;;;5088686;28;20081;-71
2023/06/18 09:41:00;;;;;;;11.67;8.73;;;29.00;47.90;;;;;;5087912;28;20036;-71
2023/06/18 09:43:47;;;;;;;15.02;8.15;;;28.90;47.00;;;;;;5121167;27;20028;-71
2023/06/18 09:46:15;;;;;;;14.23;8.40;;;29.00;47.30;;;;;;5087878;28;20067;-70
2023/06/18 09:48:43;;;;;;;11.05;8.40;;;29.00;46.70;;;;;;5088408;28;20525;-71
2023/06/18 09:51:10;;;;;;;15.48;8.70;;;28.70;46.30;;;;;;5088191;28;20032;-71
2023/06/18 09:53:36;;;;;;;18.38;8.55;;;28.80;46.60;;;;;;5088421;28;20024;-71
2023/06/18 09:56:13;;;;;;;16.00;8.85;;;28.60;48.30;;;;;;5087717;28;20157;-71
2023/06/18 09:58:43;;;;;;;10.60;8.10;;;28.80;46.40;;;;;;5088355;28;20036;-72
2023/06/18 10:01:09;;;;;;;9.77;8.00;;;28.70;48.40;;;;;;5087814;28;20025;-71
2023/06/18 10:03:36;;;;;;;12.30;9.20;;;28.90;46.60;;;;;;5088386;28;20103;-71
2023/06/18 10:06:21;;;;;;;9.63;7.70;;;28.70;44.10;;;;;;5087518;28;20043;-71
2023/06/18 10:08:53;;;;;;;12.57;8.68;;;28.60;46.00;;;;;;5087638;28;20052;-70
2023/06/18 10:11:21;;;;;;;12.27;8.30;;;28.70;46.70;;;;;;5088301;28;20130;-71
2023/06/18 10:13:53;;;;;;;13.65;8.60;;;28.60;47.30;;;;;;5087826;28;20021;-69
2023/06/18 10:16:20;;;;;;;10.10;8.30;;;28.40;45.90;;;;;;5088394;28;20071;-70
2023/06/18 10:18:50;;;;;;;12.95;8.57;;;28.20;47.50;;;;;;5087848;28;20071;-71
2023/06/18 10:21:17;;;;;;;12.05;8.40;;;28.50;45.10;;;;;;5120932;28;20024;-71
2023/06/18 10:23:45;;;;;;;24.27;9.02;;;28.60;44.30;;;;;;5088140;28;20064;-70
2023/06/18 10:26:12;;;;;;;15.55;7.82;;;28.70;46.00;;;;;;5087525;28;20032;-70
2023/06/18 10:28:37;;;;;;;11.07;7.97;;;28.70;46.70;;;;;;5088044;28;20024;-71
2023/06/18 10:31:05;;;;;;;14.18;8.13;;;28.90;45.30;;;;;;5087298;28;20039;-71
2023/06/18 10:33:33;;;;;;;12.35;8.50;;;29.30;46.50;;;;;;5088112;28;20024;-71
2023/06/18 10:36:00;;;;;;;12.02;7.95;;;29.80;46.70;;;;;;5087313;28;20615;-71
2023/06/18 10:38:26;;;;;;;11.07;7.93;;;30.10;44.70;;;;;;5088090;28;20119;-71
2023/06/18 10:41:09;;;;;;;11.45;8.07;;;30.20;42.90;;;;;;5087249;28;20020;-69
2023/06/18 10:43:41;;;;;;;11.35;8.25;;;30.20;43.90;;;;;;5086844;28;20032;-69
2023/06/18 10:46:13;;;;;;;14.38;8.02;;;30.30;42.80;;;;;;5086741;28;20180;-69
2023/06/18 10:48:38;;;;;;;14.10;8.90;;;30.50;43.00;;;;;;5088034;28;20043;-70
2023/06/18 10:51:12;;;;;;;13.02;8.43;;;30.30;41.70;;;;;;5119949;28;20468;-69
2023/06/18 10:53:37;;;;;;;13.73;8.25;;;30.10;43.20;;;;;;5087851;28;20020;-69
2023/06/18 10:56:03;;;;;;;9.90;7.38;;;29.80;44.20;;;;;;5087746;28;20430;-70
2023/06/18 10:58:33;;;;;;;14.55;8.25;;;30.10;46.80;;;;;;5091516;28;20065;-70
2023/06/18 11:00:59;;;;;;;12.10;8.50;;;30.40;42.40;;;;;;5090592;28;20488;-70
2023/06/18 11:03:37;;;;;;;12.50;8.50;;;30.20;41.40;;;;;;5091373;28;20069;-70
2023/06/18 11:06:04;;;;;;;9.40;7.75;;;30.30;42.60;;;;;;5090452;28;20039;-69
2023/06/18 11:08:32;;;;;;;12.27;8.25;;;30.50;42.20;;;;;;5091287;28;20111;-69
2023/06/18 11:11:00;;;;;;;11.23;8.10;;;30.50;41.60;;;;;;5090503;28;20670;-69
2023/06/18 11:13:41;;;;;;;11.32;8.57;;;30.30;40.30;;;;;;5091190;28;20028;-70
2023/06/18 11:16:06;;;;;;;13.93;8.63;;;30.50;41.60;;;;;;5090243;28;20036;-70
2023/06/18 11:18:33;;;;;;;10.50;8.15;;;30.80;41.50;;;;;;5090984;28;20032;-69
2023/06/18 11:21:02;;;;;;;13.43;8.90;;;30.90;42.50;;;;;;5089016;28;20376;-70
2023/06/18 11:23:29;;;;;;;13.20;8.27;;;31.20;41.60;;;;;;5091060;28;20137;-69
2023/06/18 11:25:55;;;;;;;10.48;8.23;;;31.20;40.70;;;;;;5090191;28;20036;-69
2023/06/18 11:28:25;;;;;;;11.00;8.27;;;31.40;41.70;;;;;;5090967;28;20529;-69
2023/06/18 11:30:54;;;;;;;18.65;8.40;;;31.70;42.40;;;;;;5090521;28;20016;-69
2023/06/18 11:33:23;;;;;;;11.30;8.63;;;31.60;42.20;;;;;;5090723;28;20047;-69
2023/06/18 11:35:50;;;;;;;12.10;8.30;;;31.60;41.60;;;;;;5090547;28;20028;-69
2023/06/18 11:38:20;;;;;;;12.57;8.35;;;31.70;39.90;;;;;;5090421;28;20063;-69
2023/06/18 11:40:54;;;;;;;13.95;8.60;;;31.70;40.80;;;;;;5090810;28;20480;-69
2023/06/18 11:43:21;;;;;;;11.63;8.00;;;31.70;41.80;;;;;;5090700;28;20051;-70
2023/06/18 11:45:51;;;;;;;11.25;8.07;;;31.40;40.50;;;;;;5090276;28;20077;-69
2023/06/18 11:48:22;;;;;;;10.65;8.32;;;31.70;42.00;;;;;;5123099;27;20056;-69
2023/06/18 11:50:54;;;;;;;16.02;8.52;;;31.90;40.70;;;;;;5090649;28;20039;-70
2023/06/18 11:53:21;;;;;;;12.45;7.97;;;31.40;39.00;;;;;;5090421;28;20451;-72
2023/06/18 11:55:47;;;;;;;14.82;9.02;;;30.90;40.30;;;;;;5090370;28;20028;-71
2023/06/18 11:58:15;;;;;;;12.30;8.63;;;30.70;42.30;;;;;;5089299;28;20119;-71
2023/06/18 12:00:41;;;;;;;15.57;9.10;;;30.70;40.50;;;;;;5090375;28;20553;-71
2023/06/18 12:03:06;;;;;;;10.60;8.07;;;30.80;41.50;;;;;;5089489;28;20055;-71
2023/06/18 12:05:36;;;;;;;13.80;8.18;;;30.60;41.30;;;;;;5090146;28;20016;-71
2023/06/18 12:08:13;;;;;;;13.05;8.98;;;30.40;43.60;;;;;;5089211;28;20484;-70
2023/06/18 12:10:41;;;;;;;12.45;8.55;;;30.20;43.80;;;;;;5090545;28;20122;-71
2023/06/18 12:13:22;;;;;;;13.95;7.63;;;30.10;41.70;;;;;;5122112;27;20365;-71
2023/06/18 12:16:05;;;;;;;;;;;30.20;43.40;;;;;;5090608;28;20035;-71
2023/06/18 12:18:34;;;;;;;11.82;7.82;;;30.50;43.30;;;;;;5089916;28;19920;-71
2023/06/18 12:21:01;;;;;;;15.20;8.73;;;30.80;43.40;;;;;;5089129;28;20610;-71
2023/06/18 12:23:27;;;;;;;11.88;8.73;;;31.30;41.60;;;;;;5089655;28;20039;-70
2023/06/18 12:25:53;;;;;;;12.38;8.50;;;31.30;39.50;;;;;;5089206;28;20028;-69
2023/06/18 12:28:23;;;;;;;13.85;8.32;;;31.20;40.40;;;;;;5089371;28;20032;-69
2023/06/18 12:30:51;;;;;;;;;;;31.30;41.00;;;;;;5090196;28;20131;-70
2023/06/18 12:33:18;;;;;;;12.43;9.15;;;31.40;39.70;;;;;;5088371;28;20360;-70